Time;durP1;ratioP1;P1;durP2;ratioP2;P2;SDS_P1;SDS_P2;PMS_P1;PMS_P2;Temp;Humidity;BMP_temperature;BMP_pressure;BME280_temperature;BME280_humidity;BME280_pressure;Samples;Min_cycle;Max_cycle;Signal;HPM_P1;HPM_P2
2022/11/05 07:00:32;;;;;;;;;10.33;10.00;;;;;-147.14;100.00;58812.66;5861831;23;46058;-60
2022/11/05 07:03:04;;;;;;;;;14.00;13.00;;;;;-147.14;100.00;58812.66;5010512;28;46344;-60
2022/11/05 07:05:30;;;;;;;;;8.33;8.33;;;;;-147.14;100.00;58812.66;5000640;28;45354;-59
2022/11/05 07:07:55;;;;;;;;;14.00;11.67;;;;;-147.14;100.00;58812.66;5013720;28;45404;-60
2022/11/05 07:10:21;;;;;;;;;11.67;9.67;;;;;-147.14;100.00;58812.66;5007892;28;70754;-59
2022/11/05 07:12:46;;;;;;;;;9.00;8.00;;;;;-147.14;100.00;58812.66;5005005;28;65394;-59
2022/11/05 07:15:12;;;;;;;;;13.67;9.33;;;;;-147.14;100.00;58812.66;5013528;28;53760;-59
2022/11/05 07:17:38;;;;;;;;;13.00;12.33;;;;;-147.14;100.00;58812.66;5000544;28;45432;-59
2022/11/05 07:20:05;;;;;;;;;15.00;13.33;;;;;-147.14;100.00;58812.66;5003420;28;46220;-60
2022/11/05 07:22:31;;;;;;;;;11.00;11.00;;;;;-147.14;100.00;58812.66;5000296;28;45608;-60
2022/11/05 07:24:56;;;;;;;;;12.00;8.00;;;;;-147.14;100.00;58812.66;5003252;28;45308;-60
2022/11/05 07:27:21;;;;;;;;;4.00;4.00;;;;;-147.14;100.00;58812.66;4999424;28;67984;-59
2022/11/05 07:29:47;;;;;;;;;7.67;7.67;;;;;-147.14;100.00;58812.66;5005361;28;75190;-60
2022/11/05 07:32:12;;;;;;;;;9.00;8.33;;;;;-147.14;100.00;58812.66;4999756;28;70213;-60
2022/11/05 07:34:37;;;;;;;;;8.00;6.00;;;;;-147.14;100.00;58812.66;5000148;28;45414;-60
2022/11/05 07:37:03;;;;;;;;;10.33;6.67;;;;;-147.14;100.00;58812.66;4999291;28;49971;-59
2022/11/05 07:39:28;;;;;;;;;11.33;7.33;;;;;-147.14;100.00;58812.66;5001524;28;45907;-59
2022/11/05 07:41:54;;;;;;;;;9.00;8.00;;;;;-147.14;100.00;58812.66;4998649;28;53590;-59
2022/11/05 07:44:20;;;;;;;;;9.33;7.00;;;;;-147.14;100.00;58812.66;4999540;28;45642;-59
2022/11/05 07:46:45;;;;;;;;;9.33;8.00;;;;;-147.14;100.00;58812.66;5001355;28;45365;-60
2022/11/05 07:49:11;;;;;;;;;8.33;7.67;;;;;-147.14;100.00;58812.66;5002112;28;68146;-60
2022/11/05 07:51:36;;;;;;;;;15.00;8.00;;;;;-147.14;100.00;58812.66;5009743;28;66204;-61
2022/11/05 07:54:01;;;;;;;;;9.00;7.33;;;;;-147.14;100.00;58812.66;4999245;28;63825;-60
2022/11/05 07:56:27;;;;;;;;;6.00;6.00;;;;;-147.14;100.00;58812.66;5006132;28;45631;-60
2022/11/05 07:58:52;;;;;;;;;6.00;5.00;;;;;-147.14;100.00;58812.66;4997822;28;69318;-60
2022/11/05 08:01:17;;;;;;;;;7.67;7.00;;;;;-147.14;100.00;58812.66;5002303;28;68255;-60
2022/11/05 08:03:43;;;;;;;;;9.67;9.00;;;;;-147.14;100.00;58812.66;4999224;28;45646;-60
2022/11/05 08:06:08;;;;;;;;;8.33;7.67;;;;;-147.14;100.00;58812.66;5000588;28;45515;-60
2022/11/05 08:08:35;;;;;;;;;8.00;8.00;;;;;-147.14;100.00;58812.66;5011572;28;47537;-60
2022/11/05 08:11:08;;;;;;;;;12.67;8.33;;;;;-147.14;100.00;58812.66;4998995;28;45381;-60
2022/11/05 08:13:34;;;;;;;;;7.67;5.00;;;;;-147.14;100.00;58812.66;5007195;28;45341;-60
2022/11/05 08:16:00;;;;;;;;;9.33;6.67;;;;;-147.14;100.00;58812.66;5013303;28;45563;-60
2022/11/05 08:18:30;;;;;;;;;8.33;6.00;;;;;-147.14;100.00;58812.66;5010220;28;46185;-60
2022/11/05 08:21:00;;;;;;;;;5.00;2.67;;;;;-147.14;100.00;58812.66;4999090;28;45447;-60
2022/11/05 08:23:26;;;;;;;;;9.00;7.00;;;;;-147.14;100.00;58812.66;4998998;28;45479;-60
2022/11/05 08:25:51;;;;;;;;;6.67;6.67;;;;;-147.14;100.00;58812.66;4998607;28;45226;-60
2022/11/05 08:28:18;;;;;;;;;9.00;8.00;;;;;-147.14;100.00;58812.66;5003874;28;46569;-60
2022/11/05 08:30:47;;;;;;;;;8.33;6.33;;;;;-147.14;100.00;58812.66;5009037;28;45428;-60
2022/11/05 08:33:13;;;;;;;;;8.00;8.00;;;;;-147.14;100.00;58812.66;5000637;28;45406;-60
2022/11/05 08:35:38;;;;;;;;;10.00;9.00;;;;;-147.14;100.00;58812.66;5004226;28;57721;-60
2022/11/05 08:38:05;;;;;;;;;8.00;7.00;;;;;-147.14;100.00;58812.66;4999288;28;46203;-60
2022/11/05 08:40:33;;;;;;;;;7.33;7.33;;;;;-147.14;100.00;58812.66;5006381;28;45751;-60
2022/11/05 08:43:01;;;;;;;;;10.67;6.00;;;;;-147.14;100.00;58812.66;4998488;28;45361;-60
2022/11/05 08:45:27;;;;;;;;;8.00;7.00;;;;;-147.14;100.00;58812.66;5011048;28;45332;-60
2022/11/05 08:47:59;;;;;;;;;8.00;7.67;;;;;-147.14;100.00;58812.66;4999305;28;46247;-60
2022/11/05 08:50:25;;;;;;;;;8.33;8.00;;;;;-147.14;100.00;58812.66;4998815;28;45377;-60
2022/11/05 08:52:50;;;;;;;;;7.00;5.00;;;;;-147.14;100.00;58812.66;4998331;28;45367;-60
2022/11/05 08:55:17;;;;;;;;;10.33;8.00;;;;;-147.14;100.00;58812.66;5000314;28;66558;-60
2022/11/05 08:57:44;;;;;;;;;7.67;7.67;;;;;-147.14;100.00;58812.66;4998328;28;46080;-60
2022/11/05 09:00:10;;;;;;;;;8.67;7.67;;;;;-147.14;100.00;58812.66;5011787;28;45329;-61
2022/11/05 09:02:36;;;;;;;;;7.00;5.67;;;;;-147.14;100.00;58812.66;5010949;28;45344;-60
2022/11/05 09:05:01;;;;;;;;;7.33;7.33;;;;;-147.14;100.00;58812.66;4997800;28;61963;-60
2022/11/05 09:07:26;;;;;;;;;11.00;7.00;;;;;-147.14;100.00;58812.66;4997140;28;68101;-60
2022/11/05 09:09:52;;;;;;;;;8.00;6.33;;;;;-147.14;100.00;58812.66;5010599;28;61986;-60
2022/11/05 09:12:17;;;;;;;;;7.67;6.00;;;;;-147.14;100.00;58812.66;5003656;28;66074;-60
2022/11/05 09:14:42;;;;;;;;;6.33;6.00;;;;;-147.14;100.00;58812.66;5004430;28;61731;-60
2022/11/05 09:17:19;;;;;;;;;10.33;9.00;;;;;-147.14;100.00;58812.66;5009923;28;67951;-60
2022/11/05 09:19:44;;;;;;;;;7.00;7.00;;;;;-147.14;100.00;58812.66;5010190;28;45392;-61
2022/11/05 09:22:11;;;;;;;;;6.00;6.00;;;;;-147.14;100.00;58812.66;5005294;28;45490;-61
2022/11/05 09:24:40;;;;;;;;;5.33;5.33;;;;;-147.14;100.00;58812.66;5012477;28;45560;-61
2022/11/05 09:27:09;;;;;;;;;7.33;7.33;;;;;-147.14;100.00;58812.66;5016555;28;46040;-60
2022/11/05 09:29:34;;;;;;;;;4.00;3.00;;;;;-147.14;100.00;58812.66;5011497;28;45360;-61
2022/11/05 09:32:00;;;;;;;;;7.67;6.00;;;;;-147.14;100.00;58812.66;5010810;28;45405;-60
2022/11/05 09:34:25;;;;;;;;;6.33;4.00;;;;;-147.14;100.00;58812.66;4994567;28;59297;-60
2022/11/05 09:36:50;;;;;;;;;6.67;4.67;;;;;-147.14;100.00;58812.66;4999967;28;75604;-60
2022/11/05 09:39:16;;;;;;;;;6.00;5.33;;;;;-147.14;100.00;58812.66;5002636;28;70732;-60
2022/11/05 09:41:43;;;;;;;;;5.00;5.00;;;;;-147.14;100.00;58812.66;5001427;28;45823;-60
2022/11/05 09:44:16;;;;;;;;;7.00;5.00;;;;;-147.14;100.00;58812.66;5003855;28;45497;-61
2022/11/05 09:46:50;;;;;;;;;6.00;4.67;;;;;-147.14;100.00;58812.66;4985257;28;47253;-60
2022/11/05 09:49:40;;;;;;;;;4.67;4.67;;;;;-147.14;100.00;58812.66;5004880;28;45357;-60
2022/11/05 09:52:24;;;;;;;;;6.00;4.00;;;;;-147.14;100.00;58812.66;5003474;28;45535;-60
2022/11/05 09:54:50;;;;;;;;;8.00;5.00;;;;;-147.14;100.00;58812.66;5000961;28;45278;-60
2022/11/05 09:57:19;;;;;;;;;6.00;4.00;;;;;-147.14;100.00;58812.66;5013844;28;46062;-60
2022/11/05 09:59:47;;;;;;;;;3.00;3.00;;;;;-147.14;100.00;58812.66;5001390;28;45771;-60
2022/11/05 10:02:19;;;;;;;;;6.67;6.67;;;;;-147.14;100.00;58812.66;5003844;28;45341;-60
2022/11/05 10:04:48;;;;;;;;;6.00;6.00;;;;;-147.14;100.00;58812.66;5012456;28;45448;-60
2022/11/05 10:07:16;;;;;;;;;5.00;5.00;;;;;-147.14;100.00;58812.66;5010908;28;45468;-60
2022/11/05 10:09:46;;;;;;;;;0.67;0.00;;;;;-147.14;100.00;58812.66;5012533;28;45530;-60
2022/11/05 10:12:30;;;;;;;;;6.00;5.67;;;;;-147.14;100.00;58812.66;5002541;28;45448;-60
2022/11/05 10:15:09;;;;;;;;;8.00;5.67;;;;;-147.14;100.00;58812.66;5013593;28;45401;-61
2022/11/05 10:17:38;;;;;;;;;4.67;3.67;;;;;-147.14;100.00;58812.66;5000965;28;46239;-61
2022/11/05 10:20:22;;;;;;;;;5.00;4.67;;;;;-147.14;100.00;58812.66;5010605;28;45750;-61
2022/11/05 10:22:50;;;;;;;;;5.00;3.67;;;;;-147.14;100.00;58812.66;5009136;28;45560;-60
2022/11/05 10:25:18;;;;;;;;;2.33;2.33;;;;;-147.14;100.00;58812.66;5018791;28;45475;-60
2022/11/05 10:27:51;;;;;;;;;5.33;5.00;;;;;-147.14;100.00;58812.66;5016322;28;45396;-60
2022/11/05 10:30:17;;;;;;;;;4.00;3.67;;;;;-147.14;100.00;58812.66;5029270;28;45514;-60
2022/11/05 10:32:43;;;;;;;;;7.00;5.00;;;;;-147.14;100.00;58812.66;5016822;28;45444;-60
2022/11/05 10:35:13;;;;;;;;;5.67;5.00;;;;;-147.14;100.00;58812.66;5006629;28;45482;-60
2022/11/05 10:37:40;;;;;;;;;4.67;4.00;;;;;-147.14;100.00;58812.66;5010689;28;47056;-60
2022/11/05 10:40:36;;;;;;;;;3.00;3.00;;;;;-147.14;100.00;58812.66;5011470;28;45384;-60
2022/11/05 10:43:24;;;;;;;;;6.33;4.33;;;;;-147.14;100.00;58812.66;5002705;28;45505;-60
2022/11/05 10:46:13;;;;;;;;;5.00;3.00;;;;;-147.14;100.00;58812.66;5022408;28;45405;-60
2022/11/05 10:49:10;;;;;;;;;7.33;4.67;;;;;-147.14;100.00;58812.66;5002048;28;45728;-60
2022/11/05 10:51:35;;;;;;;;;6.00;5.67;;;;;-147.14;100.00;58812.66;5012592;28;45435;-61
2022/11/05 10:54:05;;;;;;;;;4.67;3.67;;;;;-147.14;100.00;58812.66;5000488;28;45347;-61
2022/11/05 10:56:38;;;;;;;;;3.67;3.00;;;;;-147.14;100.00;58812.66;4999644;28;45543;-61
2022/11/05 10:59:08;;;;;;;;;7.00;5.00;;;;;-147.14;100.00;58812.66;5000052;28;46217;-60
2022/11/05 11:01:34;;;;;;;;;7.00;6.33;;;;;-147.14;100.00;58812.66;5013944;28;45388;-60
2022/11/05 11:04:23;;;;;;;;;2.67;2.00;;;;;-147.14;100.00;58812.66;4999203;28;65450;-60
2022/11/05 11:06:54;;;;;;;;;7.00;4.67;;;;;-147.14;100.00;58812.66;5002891;28;45572;-60
2022/11/05 11:09:28;;;;;;;;;6.33;4.33;;;;;-147.14;100.00;58812.66;4987025;28;47629;-60
2022/11/05 11:12:06;;;;;;;;;7.00;4.00;;;;;-147.14;100.00;58812.66;5011610;28;45683;-60
2022/11/05 11:14:33;;;;;;;;;4.33;3.67;;;;;-147.14;100.00;58812.66;4999175;28;45450;-60
2022/11/05 11:17:26;;;;;;;;;4.00;4.00;;;;;-147.14;100.00;58812.66;5000521;28;45370;-60
2022/11/05 11:20:16;;;;;;;;;3.00;2.00;;;;;-147.14;100.00;58812.66;5006148;28;45508;-61
2022/11/05 11:22:44;;;;;;;;;7.67;6.67;;;;;-147.14;100.00;58812.66;5003083;28;45569;-61
2022/11/05 11:25:30;;;;;;;;;8.67;6.33;;;;;-147.14;100.00;58812.66;5005755;28;45485;-60
2022/11/05 11:28:01;;;;;;;;;4.67;3.67;;;;;-147.14;100.00;58812.66;5000530;28;45429;-60
2022/11/05 11:30:27;;;;;;;;;5.67;5.67;;;;;-147.14;100.00;58812.66;5013323;28;46198;-60
2022/11/05 11:32:58;;;;;;;;;3.67;3.33;;;;;-147.14;100.00;58812.66;4999114;28;45369;-61
2022/11/05 11:35:24;;;;;;;;;4.00;3.33;;;;;-147.14;100.00;58812.66;5009123;28;45710;-60
2022/11/05 11:37:54;;;;;;;;;2.67;2.67;;;;;-147.14;100.00;58812.66;5009790;28;45684;-60
2022/11/05 11:40:29;;;;;;;;;3.00;3.00;;;;;-147.14;100.00;58812.66;4997791;28;46331;-60
2022/11/05 11:42:56;;;;;;;;;3.67;3.67;;;;;-147.14;100.00;58812.66;5014345;28;45899;-60
2022/11/05 11:45:45;;;;;;;;;5.00;3.67;;;;;-147.14;100.00;58812.66;4999513;28;45650;-60
2022/11/05 11:48:18;;;;;;;;;4.67;2.67;;;;;-147.14;100.00;58812.66;5008030;28;45501;-60
2022/11/05 11:50:46;;;;;;;;;4.00;4.00;;;;;-147.14;100.00;58812.66;5016589;28;46278;-61
2022/11/05 11:53:20;;;;;;;;;0.67;0.67;;;;;-147.14;100.00;58812.66;5006829;28;45482;-59
2022/11/05 11:55:55;;;;;;;;;5.00;3.67;;;;;-147.14;100.00;58812.66;5008244;28;45561;-60
2022/11/05 11:58:24;;;;;;;;;1.67;1.67;;;;;-147.14;100.00;58812.66;4999541;28;45501;-59
2022/11/05 12:00:55;;;;;;;;;3.00;2.00;;;;;-147.14;100.00;58812.66;5015711;28;46306;-61
2022/11/05 12:03:28;;;;;;;;;4.00;2.67;;;;;-147.14;100.00;58812.66;5002920;28;45539;-60
2022/11/05 12:06:02;;;;;;;;;3.67;3.67;;;;;-147.14;100.00;58812.66;5007086;28;45435;-61
2022/11/05 12:08:30;;;;;;;;;7.00;2.33;;;;;-147.14;100.00;58812.66;4999163;28;45385;-60
2022/11/05 12:11:03;;;;;;;;;2.67;2.67;;;;;-147.14;100.00;58812.66;4999166;28;46059;-60
2022/11/05 12:13:40;;;;;;;;;3.00;3.00;;;;;-147.14;100.00;58812.66;4999247;28;45373;-60
2022/11/05 12:16:38;;;;;;;;;3.67;3.33;;;;;-147.14;100.00;58812.66;5008699;28;45447;-60
2022/11/05 12:19:23;;;;;;;;;3.00;2.00;;;;;-147.14;100.00;58812.66;5002080;28;45527;-59
2022/11/05 12:21:49;;;;;;;;;1.67;1.67;;;;;-147.14;100.00;58812.66;5003926;28;46446;-60
2022/11/05 12:24:35;;;;;;;;;2.00;1.67;;;;;-147.14;100.00;58812.66;5005312;28;45739;-59
2022/11/05 12:27:19;;;;;;;;;5.00;1.67;;;;;-147.14;100.00;58812.66;5007505;28;46240;-60
2022/11/05 12:29:47;;;;;;;;;2.33;2.00;;;;;-147.14;100.00;58812.66;5008771;28;45498;-60
2022/11/05 12:32:46;;;;;;;;;3.67;1.67;;;;;-147.14;100.00;58812.66;5007786;28;46114;-60
2022/11/05 12:35:29;;;;;;;;;4.67;2.67;;;;;-147.14;100.00;58812.66;5002028;28;45391;-60
2022/11/05 12:38:04;;;;;;;;;4.00;2.33;;;;;-147.14;100.00;58812.66;4999729;28;45332;-61
2022/11/05 12:40:48;;;;;;;;;4.67;2.33;;;;;-147.14;100.00;58812.66;5016224;28;45468;-60
2022/11/05 12:43:32;;;;;;;;;2.67;2.67;;;;;-147.14;100.00;58812.66;5009657;28;46389;-60
2022/11/05 12:46:48;;;;;;;;;4.67;2.67;;;;;-147.14;100.00;58812.66;5013756;28;45929;-59
2022/11/05 12:49:45;;;;;;;;;4.00;3.00;;;;;-147.14;100.00;58812.66;4955940;28;45515;-60
2022/11/05 12:52:19;;;;;;;;;4.00;3.00;;;;;-147.14;100.00;58812.66;4994145;28;45602;-60
2022/11/05 12:54:53;;;;;;;;;1.67;1.67;;;;;-147.14;100.00;58812.66;5011050;28;46139;-60
2022/11/05 12:57:19;;;;;;;;;3.00;2.00;;;;;-147.14;100.00;58812.66;5012073;28;45379;-60
2022/11/05 13:00:20;;;;;;;;;2.00;2.00;;;;;-147.14;100.00;58812.66;5014963;28;61818;-60
2022/11/05 13:03:07;;;;;;;;;2.67;2.67;;;;;-147.14;100.00;58812.66;5011897;28;45861;-61
2022/11/05 13:05:39;;;;;;;;;1.33;1.33;;;;;-147.14;100.00;58812.66;5012544;28;46333;-60
2022/11/05 13:08:15;;;;;;;;;1.33;1.33;;;;;-147.14;100.00;58812.66;5019765;28;45380;-59
2022/11/05 13:10:42;;;;;;;;;2.67;2.00;;;;;-147.14;100.00;58812.66;5025003;28;45377;-60
2022/11/05 13:13:36;;;;;;;;;1.67;1.67;;;;;-147.14;100.00;58812.66;4998776;28;45310;-62
2022/11/05 13:16:12;;;;;;;;;3.67;3.67;;;;;-147.14;100.00;58812.66;4986372;28;47760;-62
2022/11/05 13:18:45;;;;;;;;;3.00;3.00;;;;;-147.14;100.00;58812.66;4982142;28;45453;-61
2022/11/05 13:21:11;;;;;;;;;4.00;3.00;;;;;-147.14;100.00;58812.66;5003929;28;45422;-61
2022/11/05 13:23:45;;;;;;;;;6.00;4.33;;;;;-147.14;100.00;58812.66;5006728;28;45551;-61
2022/11/05 13:26:32;;;;;;;;;3.00;3.00;;;;;-147.14;100.00;58812.66;5013075;28;48017;-61
2022/11/05 13:29:08;;;;;;;;;6.00;4.33;;;;;-147.14;100.00;58812.66;5010111;28;45671;-61
2022/11/05 13:31:40;;;;;;;;;5.33;2.67;;;;;-147.14;100.00;58812.66;4998355;28;45381;-61
2022/11/05 13:34:10;;;;;;;;;2.00;2.00;;;;;-147.14;100.00;58812.66;5000195;28;45708;-61
2022/11/05 13:39:56;;;;;;;;;3.00;3.00;;;;;-147.14;100.00;58812.66;5003569;28;45479;-61
2022/11/05 13:43:00;;;;;;;;;4.00;3.33;;;;;-147.14;100.00;58812.66;4998189;28;45500;-61
2022/11/05 13:45:57;;;;;;;;;3.00;3.00;;;;;-147.14;100.00;58812.66;5025049;28;45349;-61
2022/11/05 13:49:00;;;;;;;;;3.67;3.67;;;;;-147.14;100.00;58812.66;5011362;28;46032;-61
2022/11/05 13:51:50;;;;;;;;;3.00;3.00;;;;;-147.14;100.00;58812.66;4999948;28;45459;-61
2022/11/05 13:54:35;;;;;;;;;5.00;3.33;;;;;-147.14;100.00;58812.66;4985607;28;45838;-61
2022/11/05 13:57:19;;;;;;;;;3.67;3.67;;;;;-147.14;100.00;58812.66;5007243;28;46089;-60
2022/11/05 14:00:23;;;;;;;;;3.67;2.67;;;;;-147.14;100.00;58812.66;5008041;28;46361;-60
2022/11/05 14:02:56;;;;;;;;;5.67;3.33;;;;;-147.14;100.00;58812.66;5009593;28;45361;-61
2022/11/05 14:05:28;;;;;;;;;4.00;4.00;;;;;-147.14;100.00;58812.66;5005708;28;45443;-60
2022/11/05 14:07:54;;;;;;;;;4.00;4.00;;;;;-147.14;100.00;58812.66;5004938;28;45569;-61
2022/11/05 14:10:40;;;;;;;;;6.33;5.00;;;;;-147.14;100.00;58812.66;5004227;28;47134;-60
2022/11/05 14:13:20;;;;;;;;;3.67;3.67;;;;;-147.14;100.00;58812.66;5004346;28;45365;-60
2022/11/05 14:16:15;;;;;;;;;5.00;5.00;;;;;-147.14;100.00;58812.66;5001414;28;45447;-61
2022/11/05 14:18:48;;;;;;;;;7.33;6.00;;;;;-147.14;100.00;58812.66;5005089;28;45452;-60
2022/11/05 14:21:25;;;;;;;;;6.33;4.33;;;;;-147.14;100.00;58812.66;5009427;28;45559;-60
2022/11/05 14:23:54;;;;;;;;;5.00;4.00;;;;;-147.14;100.00;58812.66;5001210;28;45875;-61
2022/11/05 14:26:24;;;;;;;;;3.33;3.00;;;;;-147.14;100.00;58812.66;5001376;28;45484;-60
2022/11/05 14:29:02;;;;;;;;;7.33;5.00;;;;;-147.14;100.00;58812.66;5000725;28;45484;-60
2022/11/05 14:31:30;;;;;;;;;7.00;5.67;;;;;-147.14;100.00;58812.66;5004003;28;47138;-60
2022/11/05 14:34:02;;;;;;;;;3.00;3.00;;;;;-147.14;100.00;58812.66;5000684;28;45246;-60
2022/11/05 14:36:33;;;;;;;;;5.00;5.00;;;;;-147.14;100.00;58812.66;5016443;28;45692;-60
2022/11/05 14:39:17;;;;;;;;;5.67;4.00;;;;;-147.14;100.00;58812.66;5009756;28;45383;-61
2022/11/05 14:42:03;;;;;;;;;10.33;6.00;;;;;-147.14;100.00;58812.66;5000829;28;45439;-60
2022/11/05 14:44:30;;;;;;;;;5.00;5.00;;;;;-147.14;100.00;58812.66;5002916;28;45341;-60
2022/11/05 14:47:12;;;;;;;;;6.00;6.00;;;;;-147.14;100.00;58812.66;5006981;28;45904;-60
2022/11/05 14:49:51;;;;;;;;;5.00;3.67;;;;;-147.14;100.00;58812.66;5019552;28;45472;-60
2022/11/05 14:52:18;;;;;;;;;6.33;4.00;;;;;-147.14;100.00;58812.66;5016826;28;45378;-60
2022/11/05 14:54:48;;;;;;;;;6.00;4.33;;;;;-147.14;100.00;58812.66;5006033;28;45599;-61
2022/11/05 14:57:34;;;;;;;;;6.00;3.00;;;;;-147.14;100.00;58812.66;5009433;28;45781;-60
2022/11/05 15:00:00;;;;;;;;;3.00;3.00;;;;;-147.14;100.00;58812.66;5009471;28;45748;-61
2022/11/05 15:02:36;;;;;;;;;6.67;4.33;;;;;-147.14;100.00;58812.66;5005579;28;45913;-60
2022/11/05 15:05:30;;;;;;;;;4.00;3.50;;;;;-147.14;100.00;58812.66;5003123;28;45436;-61
2022/11/05 15:07:57;;;;;;;;;4.00;3.00;;;;;-147.14;100.00;58812.66;5008021;28;45681;-59
2022/11/05 15:10:26;;;;;;;;;4.00;4.00;;;;;-147.14;100.00;58812.66;5005724;28;45350;-61
2022/11/05 15:13:00;;;;;;;;;3.33;3.33;;;;;-147.14;100.00;58812.66;5003578;28;45539;-61
2022/11/05 15:15:37;;;;;;;;;5.67;5.67;;;;;-147.14;100.00;58812.66;5001509;28;45616;-62
2022/11/05 15:18:04;;;;;;;;;6.33;5.00;;;;;-147.14;100.00;58812.66;5008694;28;45323;-61
2022/11/05 15:20:39;;;;;;;;;4.00;4.00;;;;;-147.14;100.00;58812.66;5001411;28;45353;-61
2022/11/05 15:23:06;;;;;;;;;5.33;4.67;;;;;-147.14;100.00;58812.66;5006031;28;45375;-62
2022/11/05 15:25:49;;;;;;;;;6.00;5.00;;;;;-147.14;100.00;58812.66;5027744;28;45385;-61
2022/11/05 15:28:25;;;;;;;;;5.00;3.67;;;;;-147.14;100.00;58812.66;5008165;28;45396;-61
2022/11/05 15:30:55;;;;;;;;;7.67;4.67;;;;;-147.14;100.00;58812.66;5002063;28;45686;-61
2022/11/05 15:33:22;;;;;;;;;5.33;3.33;;;;;-147.14;100.00;58812.66;5006088;28;45515;-61
2022/11/05 15:35:47;;;;;;;;;4.00;4.00;;;;;-147.14;100.00;58812.66;5001155;28;45471;-61
2022/11/05 15:38:27;;;;;;;;;3.00;3.00;;;;;-147.14;100.00;58812.66;5005492;28;45529;-61
2022/11/05 15:41:11;;;;;;;;;5.00;3.00;;;;;-147.14;100.00;58812.66;5003726;28;45234;-61
2022/11/05 15:43:45;;;;;;;;;3.67;3.67;;;;;-147.14;100.00;58812.66;5001230;28;48094;-62
2022/11/05 15:46:19;;;;;;;;;7.00;6.00;;;;;-147.14;100.00;58812.66;5005885;28;46042;-62
2022/11/05 15:48:51;;;;;;;;;6.33;5.00;;;;;-147.14;100.00;58812.66;5003178;28;45448;-62
2022/11/05 15:51:17;;;;;;;;;3.67;3.00;;;;;-147.14;100.00;58812.66;5003799;28;45293;-62
2022/11/05 15:53:42;;;;;;;;;4.67;4.67;;;;;-147.14;100.00;58812.66;5008901;28;45339;-60
2022/11/05 15:56:23;;;;;;;;;6.33;3.00;;;;;-147.14;100.00;58812.66;5006475;28;45454;-60
2022/11/05 15:58:51;;;;;;;;;4.33;4.33;;;;;-147.14;100.00;58812.66;5001210;28;45951;-60
2022/11/05 16:01:22;;;;;;;;;9.67;5.00;;;;;-147.14;100.00;58812.66;5006254;28;45415;-60
2022/11/05 16:03:50;;;;;;;;;5.00;4.33;;;;;-147.14;100.00;58812.66;4999637;28;47265;-61
2022/11/05 16:06:15;;;;;;;;;6.67;5.00;;;;;-147.14;100.00;58812.66;5006046;28;45355;-61
2022/11/05 16:08:46;;;;;;;;;6.33;5.33;;;;;-147.14;100.00;58812.66;5013052;28;45644;-60
2022/11/05 16:11:19;;;;;;;;;8.00;6.00;;;;;-147.14;100.00;58812.66;5000793;28;45473;-59
2022/11/05 16:13:45;;;;;;;;;5.00;5.00;;;;;-147.14;100.00;58812.66;5002352;28;46083;-60
2022/11/05 16:16:13;;;;;;;;;8.00;5.00;;;;;-147.14;100.00;58812.66;5017293;28;63719;-60
2022/11/05 16:18:39;;;;;;;;;5.67;5.67;;;;;-147.14;100.00;58812.66;5013307;28;45492;-59
2022/11/05 16:21:10;;;;;;;;;7.00;5.33;;;;;-147.14;100.00;58812.66;5001862;28;45253;-59
2022/11/05 16:24:01;;;;;;;;;5.33;5.33;;;;;-147.14;100.00;58812.66;4998332;28;45787;-60
2022/11/05 16:26:35;;;;;;;;;7.33;4.00;;;;;-147.14;100.00;58812.66;4998879;28;45456;-59
2022/11/05 16:29:15;;;;;;;;;7.67;5.67;;;;;-147.14;100.00;58812.66;5007189;28;45466;-60
2022/11/05 16:31:40;;;;;;;;;6.67;6.67;;;;;-147.14;100.00;58812.66;5011591;28;45773;-60
2022/11/05 16:34:06;;;;;;;;;7.00;6.00;;;;;-147.14;100.00;58812.66;5010447;28;54416;-59
2022/11/05 16:36:31;;;;;;;;;8.33;6.67;;;;;-147.14;100.00;58812.66;5008289;28;59237;-60
2022/11/05 16:38:58;;;;;;;;;10.00;8.00;;;;;-147.14;100.00;58812.66;4995702;28;45453;-59
2022/11/05 16:41:25;;;;;;;;;7.67;7.00;;;;;-147.14;100.00;58812.66;4998411;28;45505;-59
2022/11/05 16:43:51;;;;;;;;;5.33;5.33;;;;;-147.14;100.00;58812.66;5004424;28;45523;-59
2022/11/05 16:46:17;;;;;;;;;5.67;5.33;;;;;-147.14;100.00;58812.66;5009616;28;45406;-59
2022/11/05 16:48:42;;;;;;;;;5.67;5.67;;;;;-147.14;100.00;58812.66;4985317;28;45373;-59
2022/11/05 16:51:10;;;;;;;;;6.33;6.00;;;;;-147.14;100.00;58812.66;4996786;28;64023;-60
2022/11/05 16:53:35;;;;;;;;;8.00;6.00;;;;;-147.14;100.00;58812.66;5007489;28;45550;-60
2022/11/05 16:56:01;;;;;;;;;7.00;7.00;;;;;-147.14;100.00;58812.66;5002002;28;67835;-60
2022/11/05 16:58:27;;;;;;;;;8.67;7.00;;;;;-147.14;100.00;58812.66;4981829;28;45382;-59
2022/11/05 17:01:04;;;;;;;;;6.00;6.00;;;;;-147.14;100.00;58812.66;5012584;28;52082;-60
2022/11/05 17:03:29;;;;;;;;;6.00;5.00;;;;;-147.14;100.00;58812.66;5010965;28;46236;-60
2022/11/05 17:05:55;;;;;;;;;8.67;7.00;;;;;-147.14;100.00;58812.66;4994226;28;55773;-61
2022/11/05 17:08:20;;;;;;;;;8.00;6.00;;;;;-147.14;100.00;58812.66;4984860;28;45485;-60
2022/11/05 17:10:45;;;;;;;;;5.00;5.00;;;;;-147.14;100.00;58812.66;4997279;28;65149;-60
2022/11/05 17:13:14;;;;;;;;;8.33;6.67;;;;;-147.14;100.00;58812.66;5006432;28;47328;-60
2022/11/05 17:15:40;;;;;;;;;7.00;5.67;;;;;-147.14;100.00;58812.66;4998242;28;45395;-60
2022/11/05 17:18:06;;;;;;;;;10.00;8.00;;;;;-147.14;100.00;58812.66;5001888;28;45476;-60
2022/11/05 17:20:40;;;;;;;;;8.67;8.00;;;;;-147.14;100.00;58812.66;5001389;28;48243;-60
2022/11/05 17:23:10;;;;;;;;;13.33;9.00;;;;;-147.14;100.00;58812.66;5005938;28;46903;-60
2022/11/05 17:25:35;;;;;;;;;8.67;6.00;;;;;-147.14;100.00;58812.66;5013891;28;45317;-60
2022/11/05 17:28:02;;;;;;;;;9.67;7.00;;;;;-147.14;100.00;58812.66;5007593;28;45454;-60
2022/11/05 17:30:27;;;;;;;;;9.00;7.33;;;;;-147.14;100.00;58812.66;5002050;28;45433;-60
2022/11/05 17:32:52;;;;;;;;;8.33;8.33;;;;;-147.14;100.00;58812.66;5005029;28;53683;-60
2022/11/05 17:35:18;;;;;;;;;4.67;4.67;;;;;-147.14;100.00;58812.66;4998195;28;45432;-60
2022/11/05 17:37:44;;;;;;;;;8.00;7.00;;;;;-147.14;100.00;58812.66;4997558;28;45416;-60
2022/11/05 17:40:16;;;;;;;;;7.33;5.67;;;;;-147.14;100.00;58812.66;5002154;28;45606;-60
2022/11/05 17:42:42;;;;;;;;;8.67;6.00;;;;;-147.14;100.00;58812.66;5000377;28;47223;-60
2022/11/05 17:45:09;;;;;;;;;8.33;8.00;;;;;-147.14;100.00;58812.66;4996836;28;45491;-60
2022/11/05 17:47:34;;;;;;;;;6.33;6.33;;;;;-147.14;100.00;58812.66;5005221;28;45544;-60
2022/11/05 17:50:00;;;;;;;;;3.33;1.00;;;;;-147.14;100.00;58812.66;4996742;28;46206;-59
2022/11/05 17:52:26;;;;;;;;;8.00;8.00;;;;;-147.14;100.00;58812.66;5012165;28;47072;-60
2022/11/05 17:54:52;;;;;;;;;11.67;8.00;;;;;-147.14;100.00;58812.66;5008333;28;45349;-60
2022/11/05 17:57:17;;;;;;;;;10.33;8.67;;;;;-147.14;100.00;58812.66;5001890;28;46477;-60
2022/11/05 17:59:43;;;;;;;;;10.67;9.00;;;;;-147.14;100.00;58812.66;5005692;28;45278;-60
2022/11/05 18:02:09;;;;;;;;;8.00;8.00;;;;;-147.14;100.00;58812.66;5006512;28;46149;-60
2022/11/05 18:04:35;;;;;;;;;8.67;6.00;;;;;-147.14;100.00;58812.66;5011964;28;45411;-60
2022/11/05 18:07:00;;;;;;;;;11.00;10.00;;;;;-147.14;100.00;58812.66;5004192;28;67281;-60
2022/11/05 18:09:26;;;;;;;;;7.67;6.00;;;;;-147.14;100.00;58812.66;5012248;28;45487;-60
2022/11/05 18:11:51;;;;;;;;;10.67;10.67;;;;;-147.14;100.00;58812.66;5005683;28;46103;-60
2022/11/05 18:14:17;;;;;;;;;15.33;12.67;;;;;-147.14;100.00;58812.66;5001254;28;45570;-61
2022/11/05 18:16:42;;;;;;;;;9.00;8.00;;;;;-147.14;100.00;58812.66;5006270;28;45526;-60
2022/11/05 18:19:08;;;;;;;;;10.67;8.33;;;;;-147.14;100.00;58812.66;5000885;28;45469;-60
2022/11/05 18:21:33;;;;;;;;;1.00;0.00;;;;;-147.14;100.00;58812.66;5000472;28;61825;-60
2022/11/05 18:24:02;;;;;;;;;10.67;9.00;;;;;-147.14;100.00;58812.66;5000943;28;66486;-60
2022/11/05 18:26:27;;;;;;;;;12.67;12.67;;;;;-147.14;100.00;58812.66;4994258;28;45394;-60
2022/11/05 18:28:53;;;;;;;;;19.67;15.00;;;;;-147.14;100.00;58812.66;4994113;28;45462;-60
2022/11/05 18:31:19;;;;;;;;;14.00;14.00;;;;;-147.14;100.00;58812.66;5001477;28;65644;-60